createdAt,value
2023-01-05T00:01:03.584Z,3.20
2023-01-05T00:03:30.785Z,3.30
2023-01-05T00:06:05.752Z,3.30
2023-01-05T00:08:37.142Z,3.70
2023-01-05T00:11:30.437Z,3.47
2023-01-05T00:14:15.784Z,3.45
2023-01-05T00:17:01.411Z,3.08
2023-01-05T00:19:46.907Z,3.42
2023-01-05T00:22:34.592Z,2.78
2023-01-05T00:25:11.610Z,3.70
2023-01-05T00:27:44.725Z,2.90
2023-01-05T00:30:14.356Z,3.50
2023-01-05T00:32:42.619Z,3.80
2023-01-05T00:35:10.716Z,3.38
2023-01-05T00:37:38.575Z,3.45
2023-01-05T00:40:07.177Z,3.03
2023-01-05T00:42:34.391Z,2.88
2023-01-05T00:45:01.280Z,2.85
2023-01-05T00:47:28.092Z,3.75
2023-01-05T00:49:54.907Z,2.85
2023-01-05T00:52:21.739Z,3.73
2023-01-05T00:54:48.526Z,3.38
2023-01-05T00:57:15.381Z,3.47
2023-01-05T00:59:42.432Z,2.90
2023-01-05T01:02:10.199Z,3.20
2023-01-05T01:04:37.309Z,3.15
2023-01-05T01:07:05.360Z,3.35
2023-01-05T01:09:32.556Z,2.75
2023-01-05T01:11:59.960Z,3.40
2023-01-05T01:14:26.933Z,2.77
2023-01-05T01:16:53.845Z,3.22
2023-01-05T01:19:24.004Z,3.50
2023-01-05T01:21:50.839Z,2.97
2023-01-05T01:24:23.414Z,2.45
2023-01-05T01:26:50.503Z,2.67
2023-01-05T01:29:17.922Z,3.40
2023-01-05T01:31:50.834Z,3.13
2023-01-05T01:34:17.738Z,3.03
2023-01-05T01:36:44.890Z,3.13
2023-01-05T01:39:12.352Z,2.38
2023-01-05T01:41:39.794Z,3.08
2023-01-05T01:44:44.032Z,2.45
2023-01-05T01:47:17.028Z,2.58
2023-01-05T01:49:44.348Z,2.60
2023-01-05T01:52:11.334Z,2.50
2023-01-05T01:54:38.877Z,2.45
2023-01-05T01:57:05.830Z,2.70
2023-01-05T01:59:32.911Z,2.50
2023-01-05T02:02:01.505Z,2.10
2023-01-05T02:04:32.626Z,1.73
2023-01-05T02:07:00.235Z,2.03
2023-01-05T02:09:27.309Z,2.08
2023-01-05T02:12:21.943Z,2.07
2023-01-05T02:15:07.316Z,1.85
2023-01-05T02:17:48.450Z,2.28
2023-01-05T02:20:36.295Z,1.53
2023-01-05T02:23:23.821Z,1.50
2023-01-05T02:25:56.658Z,2.40
2023-01-05T02:28:38.153Z,2.10
2023-01-05T02:31:18.749Z,1.80
2023-01-05T02:34:37.771Z,2.47
2023-01-05T02:37:20.531Z,1.30
2023-01-05T02:39:59.567Z,2.28
2023-01-05T02:42:28.410Z,1.60
2023-01-05T02:44:55.180Z,1.42
2023-01-05T02:47:28.141Z,1.55
2023-01-05T02:50:03.576Z,1.50
2023-01-05T02:52:39.938Z,1.70
2023-01-05T02:55:11.735Z,1.20
2023-01-05T02:57:52.354Z,2.00
2023-01-05T03:00:26.717Z,1.95
2023-01-05T03:03:16.967Z,1.70
2023-01-05T03:05:54.851Z,1.55
2023-01-05T03:08:32.109Z,1.40
2023-01-05T03:11:26.054Z,1.43
2023-01-05T03:14:23.554Z,1.25
2023-01-05T03:16:51.768Z,1.63
2023-01-05T03:19:39.453Z,1.80
2023-01-05T03:22:46.903Z,1.30
2023-01-05T03:25:35.857Z,1.33
2023-01-05T03:28:22.998Z,1.23
2023-01-05T03:31:20.208Z,1.33
2023-01-05T03:34:09.372Z,1.33
2023-01-05T03:37:00.023Z,1.67
2023-01-05T03:39:29.417Z,1.50
2023-01-05T03:41:56.682Z,1.40
2023-01-05T03:44:23.608Z,1.48
2023-01-05T03:46:51.127Z,1.98
2023-01-05T03:49:18.110Z,1.53
2023-01-05T03:51:44.921Z,1.67
2023-01-05T03:54:11.843Z,1.30
2023-01-05T03:56:38.659Z,1.40
2023-01-05T03:59:05.389Z,1.80
2023-01-05T04:01:32.309Z,1.20
2023-01-05T04:03:59.308Z,1.23
2023-01-05T04:06:26.093Z,1.20
2023-01-05T04:08:52.887Z,1.60
2023-01-05T04:11:22.203Z,1.30
2023-01-05T04:13:49.263Z,1.52
2023-01-05T04:16:16.436Z,1.48
2023-01-05T04:18:43.369Z,1.10
2023-01-05T04:21:10.438Z,1.00
2023-01-05T04:23:37.253Z,1.02
2023-01-05T04:26:04.207Z,1.40
2023-01-05T04:28:31.307Z,1.03
2023-01-05T04:30:58.728Z,1.05
2023-01-05T04:33:26.440Z,0.77
2023-01-05T04:35:53.334Z,0.80
2023-01-05T04:38:20.221Z,1.17
2023-01-05T04:40:51.451Z,0.80
2023-01-05T04:43:19.978Z,0.90
2023-01-05T04:45:48.800Z,0.90
2023-01-05T04:48:16.218Z,0.68
2023-01-05T04:50:43.150Z,0.83
2023-01-05T04:53:10.146Z,0.73
2023-01-05T04:55:37.221Z,0.80
2023-01-05T04:58:06.932Z,0.85
2023-01-05T05:00:36.894Z,1.00
2023-01-05T05:03:03.947Z,0.90
2023-01-05T05:05:30.772Z,1.08
2023-01-05T05:07:57.528Z,0.80
2023-01-05T05:10:24.394Z,0.97
2023-01-05T05:12:51.197Z,1.20
2023-01-05T05:15:18.195Z,0.80
2023-01-05T05:17:44.926Z,0.90
2023-01-05T05:20:12.149Z,1.20
2023-01-05T05:22:38.886Z,0.85
2023-01-05T05:25:06.497Z,1.02
2023-01-05T05:27:33.364Z,1.00
2023-01-05T05:30:00.129Z,1.00
2023-01-05T05:32:28.027Z,0.90
2023-01-05T05:34:54.779Z,1.00
2023-01-05T05:37:21.520Z,0.70
2023-01-05T05:39:48.352Z,0.95
2023-01-05T05:42:15.113Z,0.90
2023-01-05T05:44:41.907Z,0.95
2023-01-05T05:47:08.756Z,0.73
2023-01-05T05:49:35.495Z,0.70
2023-01-05T05:52:02.300Z,0.60
2023-01-05T05:54:29.109Z,0.57
2023-01-05T05:56:55.931Z,0.70
2023-01-05T05:59:22.706Z,1.07
2023-01-05T06:01:49.658Z,0.65
2023-01-05T06:04:18.338Z,0.68
2023-01-05T06:06:45.109Z,0.73
2023-01-05T06:09:11.925Z,0.90
2023-01-05T06:11:39.828Z,0.90
2023-01-05T06:14:07.747Z,0.65
2023-01-05T06:16:34.879Z,0.70
2023-01-05T06:19:01.745Z,0.80
2023-01-05T06:21:28.620Z,0.85
2023-01-05T06:23:55.396Z,0.90
2023-01-05T06:26:22.224Z,0.80
2023-01-05T06:28:48.966Z,0.82
2023-01-05T06:31:15.715Z,0.93
2023-01-05T06:33:42.847Z,0.90
2023-01-05T06:36:09.678Z,0.93
2023-01-05T06:38:36.471Z,1.20
2023-01-05T06:41:03.309Z,0.60
2023-01-05T06:43:30.934Z,1.25
2023-01-05T06:45:57.875Z,0.98
2023-01-05T06:48:24.721Z,1.10
2023-01-05T06:50:51.533Z,0.90
2023-01-05T06:53:18.448Z,1.17
2023-01-05T06:55:46.097Z,0.80
2023-01-05T06:58:12.903Z,0.60
2023-01-05T07:00:39.696Z,1.05
2023-01-05T07:03:07.717Z,1.20
2023-01-05T07:05:34.514Z,1.05
2023-01-05T07:08:01.397Z,1.00
2023-01-05T07:10:28.428Z,0.90
2023-01-05T07:12:55.204Z,1.00
2023-01-05T07:15:22.094Z,1.00
2023-01-05T07:17:48.869Z,1.23
2023-01-05T07:20:15.659Z,1.33
2023-01-05T07:22:42.646Z,1.50
2023-01-05T07:25:10.157Z,1.52
2023-01-05T07:27:37.128Z,1.20
2023-01-05T07:30:04.472Z,1.40
2023-01-05T07:32:31.246Z,1.50
2023-01-05T07:34:57.992Z,1.10
2023-01-05T07:37:25.442Z,1.30
2023-01-05T07:39:52.645Z,1.27
2023-01-05T07:42:19.531Z,1.17
2023-01-05T07:44:46.381Z,1.43
2023-01-05T07:47:13.138Z,1.53
2023-01-05T07:49:39.887Z,1.20
2023-01-05T07:52:06.641Z,1.05
2023-01-05T07:54:33.377Z,1.30
2023-01-05T07:57:00.384Z,1.08
2023-01-05T07:59:27.129Z,1.20
2023-01-05T08:01:54.011Z,1.30
2023-01-05T08:04:20.996Z,1.50
2023-01-05T08:06:47.840Z,1.50
2023-01-05T08:09:33.364Z,1.60
2023-01-05T08:12:00.218Z,0.90
2023-01-05T08:14:26.963Z,1.20
2023-01-05T08:16:53.854Z,1.13
2023-01-05T08:19:20.837Z,1.10
2023-01-05T08:21:47.599Z,1.00
2023-01-05T08:24:14.425Z,1.40
2023-01-05T08:26:41.427Z,1.00
2023-01-05T08:29:08.389Z,1.20
2023-01-05T08:31:37.683Z,1.35
2023-01-05T08:34:05.232Z,1.40
2023-01-05T08:36:32.992Z,1.00
2023-01-05T08:39:01.695Z,1.02
2023-01-05T08:41:32.108Z,1.50
2023-01-05T08:44:01.277Z,1.00
2023-01-05T08:46:30.481Z,1.47
2023-01-05T08:48:59.955Z,1.33
2023-01-05T08:51:28.028Z,1.15
2023-01-05T08:53:55.304Z,1.00
2023-01-05T08:56:25.111Z,1.47
2023-01-05T08:58:52.936Z,1.55
2023-01-05T09:01:22.191Z,1.58
2023-01-05T09:03:49.199Z,1.60
2023-01-05T09:06:16.639Z,1.30
2023-01-05T09:08:44.580Z,1.60
2023-01-05T09:11:15.863Z,1.55
2023-01-05T09:13:46.851Z,1.40
2023-01-05T09:16:18.685Z,1.90
2023-01-05T09:18:51.848Z,1.93
2023-01-05T09:21:19.416Z,1.70
2023-01-05T09:23:46.377Z,1.92
2023-01-05T09:26:18.352Z,1.63
2023-01-05T09:28:45.336Z,1.77
2023-01-05T09:31:15.341Z,1.40
2023-01-05T09:33:42.812Z,1.80
2023-01-05T09:36:11.035Z,1.73
2023-01-05T09:38:42.064Z,1.85
2023-01-05T09:41:26.659Z,2.05
2023-01-05T09:44:02.136Z,1.87
2023-01-05T09:46:35.119Z,1.30
2023-01-05T09:49:04.751Z,1.83
2023-01-05T09:51:32.560Z,1.50
2023-01-05T09:54:01.258Z,1.48
2023-01-05T09:59:36.634Z,1.50
2023-01-05T10:02:18.196Z,2.08
2023-01-05T10:04:47.267Z,1.40
2023-01-05T10:07:32.515Z,2.13
2023-01-05T10:10:05.430Z,1.67
2023-01-05T10:13:00.882Z,1.65
2023-01-05T10:15:28.026Z,1.70
2023-01-05T10:17:55.149Z,1.93
2023-01-05T10:20:42.332Z,1.63
2023-01-05T10:23:15.299Z,1.20
2023-01-05T10:25:43.058Z,1.75
2023-01-05T10:28:28.021Z,1.50
2023-01-05T10:31:00.592Z,2.10
2023-01-05T10:33:59.014Z,2.28
2023-01-05T10:37:08.903Z,1.90
2023-01-05T10:39:56.746Z,1.47
2023-01-05T10:42:29.742Z,1.88
2023-01-05T10:44:59.650Z,1.58
2023-01-05T10:47:29.469Z,2.03
2023-01-05T10:49:56.632Z,2.03
2023-01-05T10:52:23.938Z,1.80
2023-01-05T10:55:00.484Z,2.17
2023-01-05T10:57:35.239Z,2.10
2023-01-05T11:00:18.140Z,1.50
2023-01-05T11:02:48.380Z,2.10
2023-01-05T11:05:30.615Z,2.43
2023-01-05T11:08:01.334Z,2.00
2023-01-05T11:10:49.165Z,2.77
2023-01-05T11:13:15.895Z,2.90
2023-01-05T11:15:50.440Z,3.08
2023-01-05T11:18:31.068Z,2.40
2023-01-05T11:21:16.029Z,2.20
2023-01-05T11:23:48.637Z,2.58
2023-01-05T11:26:36.433Z,1.50
2023-01-05T11:29:11.086Z,1.90
2023-01-05T11:32:00.896Z,2.10
2023-01-05T11:34:36.627Z,1.70
2023-01-05T11:37:12.411Z,1.37
2023-01-05T11:39:39.179Z,1.83
2023-01-05T11:42:36.412Z,1.60
2023-01-05T11:45:03.213Z,1.40
2023-01-05T11:47:44.178Z,1.85
2023-01-05T11:50:14.530Z,1.43
2023-01-05T11:52:50.455Z,2.17
2023-01-05T11:55:20.319Z,1.53
2023-01-05T11:57:50.521Z,1.37
2023-01-05T12:00:38.159Z,1.60
2023-01-05T12:03:11.055Z,1.60
2023-01-05T12:05:52.240Z,1.27
2023-01-05T12:08:27.678Z,1.90
2023-01-05T12:10:59.323Z,1.17
2023-01-05T12:14:00.484Z,1.23
2023-01-05T12:16:45.515Z,1.63
2023-01-05T12:19:31.983Z,1.98
2023-01-05T12:22:13.405Z,1.23
2023-01-05T12:24:42.965Z,1.50
2023-01-05T12:27:27.784Z,1.50
2023-01-05T12:31:53.428Z,1.45
2023-01-05T12:36:34.023Z,1.20
2023-01-05T12:39:32.906Z,2.97
2023-01-05T12:42:11.805Z,1.48
2023-01-05T12:44:47.451Z,1.63
2023-01-05T12:47:36.961Z,1.83
2023-01-05T12:50:12.891Z,1.80
2023-01-05T12:52:45.688Z,1.63
2023-01-05T12:55:25.710Z,1.53
2023-01-05T12:58:15.311Z,2.15
2023-01-05T13:00:46.391Z,1.67
2023-01-05T13:03:28.192Z,1.87
2023-01-05T13:06:08.375Z,1.80
2023-01-05T13:08:41.980Z,1.67
2023-01-05T13:11:25.741Z,1.60
2023-01-05T13:13:56.850Z,1.45
2023-01-05T13:16:37.961Z,2.07
2023-01-05T13:19:10.805Z,1.90
2023-01-05T13:21:42.927Z,1.33
2023-01-05T13:24:30.387Z,1.45
2023-01-05T13:26:59.210Z,1.60
2023-01-05T13:29:35.873Z,0.90
2023-01-05T13:32:23.603Z,0.90
2023-01-05T13:35:06.175Z,1.27
2023-01-05T13:37:53.762Z,0.70
2023-01-05T13:40:39.215Z,1.10
2023-01-05T13:43:40.143Z,1.33
2023-01-05T13:46:26.838Z,1.10
2023-01-05T13:49:03.392Z,1.10
2023-01-05T13:51:54.437Z,1.03
2023-01-05T13:54:59.860Z,1.02
2023-01-05T13:57:34.918Z,1.27
2023-01-05T14:00:09.992Z,1.35
2023-01-05T14:02:44.660Z,1.30
2023-01-05T14:05:16.209Z,1.33
2023-01-05T14:07:43.349Z,1.10
2023-01-05T14:10:31.621Z,1.43
2023-01-05T14:12:59.093Z,1.37
2023-01-05T14:15:29.003Z,1.50
2023-01-05T14:18:02.013Z,1.35
2023-01-05T14:20:49.220Z,1.88
2023-01-05T14:23:30.135Z,1.92
2023-01-05T14:26:00.704Z,1.27
2023-01-05T14:28:30.513Z,1.15
2023-01-05T14:31:15.931Z,2.08
2023-01-05T14:33:55.927Z,1.60
2023-01-05T14:36:43.467Z,1.60
2023-01-05T14:39:19.340Z,1.25
2023-01-05T14:42:12.008Z,1.90
2023-01-05T14:44:51.867Z,1.42
2023-01-05T14:47:35.707Z,1.58
2023-01-05T14:50:05.810Z,1.48
2023-01-05T14:52:59.433Z,1.50
2023-01-05T14:55:39.551Z,1.73
2023-01-05T14:58:38.417Z,1.65
2023-01-05T15:04:17.594Z,1.77
2023-01-05T15:06:47.311Z,1.73
2023-01-05T15:09:32.667Z,1.65
2023-01-05T15:12:15.457Z,1.27
2023-01-05T15:15:11.476Z,1.23
2023-01-05T15:17:48.635Z,1.40
2023-01-05T15:20:25.599Z,1.52
2023-01-05T15:23:33.567Z,1.75
2023-01-05T15:26:08.045Z,1.45
2023-01-05T15:28:43.947Z,1.52
2023-01-05T15:31:30.640Z,1.20
2023-01-05T15:34:15.355Z,1.58
2023-01-05T15:37:10.550Z,1.57
2023-01-05T15:39:44.905Z,2.45
2023-01-05T15:42:20.853Z,1.60
2023-01-05T15:44:50.632Z,1.65
2023-01-05T15:47:20.315Z,1.50
2023-01-05T15:49:49.164Z,1.33
2023-01-05T15:52:36.259Z,1.40
2023-01-05T15:55:15.382Z,1.30
2023-01-05T15:57:42.640Z,2.22
2023-01-05T16:00:24.224Z,1.48
2023-01-05T16:02:51.342Z,1.10
2023-01-05T16:05:19.342Z,2.50
2023-01-05T16:08:11.571Z,1.70
2023-01-05T16:10:51.917Z,1.70
2023-01-05T16:13:30.501Z,2.17
2023-01-05T16:16:00.527Z,1.58
2023-01-05T16:18:37.303Z,1.27
2023-01-05T16:21:36.147Z,1.17
2023-01-05T16:24:15.018Z,1.73
2023-01-05T16:26:42.222Z,1.83
2023-01-05T16:29:31.377Z,2.53
2023-01-05T16:31:58.416Z,2.00
2023-01-05T16:34:27.680Z,2.42
2023-01-05T16:37:01.759Z,2.72
2023-01-05T16:39:35.707Z,2.45
2023-01-05T16:42:54.468Z,1.73
2023-01-05T16:45:26.467Z,2.53
2023-01-05T16:47:53.480Z,1.70
2023-01-05T16:50:20.205Z,1.38
2023-01-05T16:53:11.724Z,1.50
2023-01-05T16:55:39.399Z,1.10
2023-01-05T16:58:30.764Z,1.10
2023-01-05T17:01:22.316Z,1.00
2023-01-05T17:03:49.464Z,0.93
2023-01-05T17:06:23.917Z,0.93
2023-01-05T17:08:51.364Z,0.70
2023-01-05T17:11:18.176Z,1.27
2023-01-05T17:13:50.298Z,0.90
2023-01-05T17:16:17.243Z,1.00
2023-01-05T17:18:44.945Z,1.30
2023-01-05T17:21:19.544Z,0.60
2023-01-05T17:23:49.571Z,1.35
2023-01-05T17:26:23.494Z,1.02
2023-01-05T17:28:51.239Z,0.98
2023-01-05T17:31:18.142Z,1.00
2023-01-05T17:33:44.962Z,0.80
2023-01-05T17:36:11.889Z,0.90
2023-01-05T17:38:38.786Z,0.70
2023-01-05T17:41:05.892Z,0.90
2023-01-05T17:43:32.730Z,1.10
2023-01-05T17:45:59.569Z,1.20
2023-01-05T17:48:26.374Z,0.85
2023-01-05T17:50:54.380Z,1.45
2023-01-05T17:53:21.544Z,1.10
2023-01-05T17:55:48.345Z,1.23
2023-01-05T17:58:15.580Z,1.10
2023-01-05T18:03:22.298Z,1.00
2023-01-05T18:05:52.663Z,1.23
2023-01-05T18:08:21.302Z,1.48
2023-01-05T18:10:48.341Z,1.40
2023-01-05T18:13:18.080Z,1.60
2023-01-05T18:15:50.533Z,1.13
2023-01-05T18:18:18.112Z,1.15
2023-01-05T18:20:44.849Z,0.80
2023-01-05T18:23:11.948Z,1.33
2023-01-05T18:25:39.649Z,1.05
2023-01-05T18:28:06.683Z,1.10
2023-01-05T18:30:33.673Z,1.50
2023-01-05T18:33:00.517Z,1.42
2023-01-05T18:35:27.535Z,1.40
2023-01-05T18:40:28.008Z,1.38
2023-01-05T18:42:55.439Z,1.67
2023-01-05T18:45:32.039Z,1.05
2023-01-05T18:47:59.068Z,1.20
2023-01-05T18:50:26.202Z,1.42
2023-01-05T18:52:53.062Z,1.52
2023-01-05T18:55:19.832Z,1.77
2023-01-05T18:57:46.597Z,1.02
2023-01-05T19:00:13.946Z,1.20
2023-01-05T19:02:40.912Z,1.60
2023-01-05T19:05:08.969Z,1.52
2023-01-05T19:07:36.657Z,1.60
2023-01-05T19:10:03.541Z,1.90
2023-01-05T19:12:30.340Z,1.50
2023-01-05T19:14:57.116Z,1.40
2023-01-05T19:17:23.878Z,1.30
2023-01-05T19:19:50.782Z,1.50
2023-01-05T19:22:17.559Z,1.50
2023-01-05T19:24:44.334Z,1.67
2023-01-05T19:27:11.121Z,1.67
2023-01-05T19:29:37.924Z,1.40
2023-01-05T19:32:04.921Z,1.27
2023-01-05T19:34:31.823Z,1.25
2023-01-05T19:36:58.671Z,1.50
2023-01-05T19:39:27.123Z,1.30
2023-01-05T19:41:53.871Z,1.13
2023-01-05T19:44:22.048Z,1.05
2023-01-05T19:46:51.964Z,1.00
2023-01-05T19:49:23.979Z,1.30
2023-01-05T19:51:52.257Z,1.20
2023-01-05T19:54:20.461Z,1.33
2023-01-05T19:56:47.251Z,0.90
2023-01-05T19:59:21.448Z,1.40
2023-01-05T20:01:48.689Z,1.00
2023-01-05T20:04:15.759Z,1.60
2023-01-05T20:06:45.123Z,1.48
2023-01-05T20:09:17.556Z,1.50
2023-01-05T20:11:48.917Z,1.13
2023-01-05T20:14:28.115Z,1.45
2023-01-05T20:16:57.494Z,1.45
2023-01-05T20:19:26.855Z,1.40
2023-01-05T20:21:54.572Z,1.65
2023-01-05T20:24:23.706Z,1.30
2023-01-05T20:26:52.818Z,1.17
2023-01-05T20:29:21.532Z,1.02
2023-01-05T20:31:54.231Z,1.45
2023-01-05T20:34:22.841Z,1.38
2023-01-05T20:36:50.116Z,1.70
2023-01-05T20:39:22.194Z,1.30
2023-01-05T20:41:50.922Z,1.40
2023-01-05T20:44:24.074Z,1.10
2023-01-05T20:46:53.902Z,1.42
2023-01-05T20:49:22.049Z,1.35
2023-01-05T20:51:49.636Z,1.20
2023-01-05T20:54:16.666Z,1.35
2023-01-05T20:56:46.249Z,1.00
2023-01-05T20:59:23.477Z,1.65
2023-01-05T21:01:51.887Z,1.20
2023-01-05T21:04:20.000Z,1.10
2023-01-05T21:06:47.919Z,1.02
2023-01-05T21:09:15.352Z,1.45
2023-01-05T21:11:42.251Z,1.73
2023-01-05T21:14:11.379Z,1.05
2023-01-05T21:16:44.896Z,0.93
2023-01-05T21:19:17.257Z,0.80
2023-01-05T21:21:48.757Z,2.10
2023-01-05T21:24:16.309Z,1.35
2023-01-05T21:26:44.517Z,1.80
2023-01-05T21:29:14.149Z,1.35
2023-01-05T21:31:41.219Z,1.35
2023-01-05T21:34:08.171Z,1.30
2023-01-05T21:36:38.372Z,1.15
2023-01-05T21:39:08.335Z,0.85
2023-01-05T21:41:55.800Z,1.00
2023-01-05T21:44:23.226Z,0.93
2023-01-05T21:46:50.637Z,1.50
2023-01-05T21:49:18.335Z,1.20
2023-01-05T21:52:03.997Z,1.15
2023-01-05T21:54:49.718Z,1.30
2023-01-05T21:57:17.069Z,1.70
2023-01-05T21:59:44.492Z,1.17
2023-01-05T22:02:13.000Z,1.77
2023-01-05T22:04:40.370Z,1.50
2023-01-05T22:07:07.479Z,1.10
2023-01-05T22:09:38.340Z,1.25
2023-01-05T22:12:08.643Z,1.33
2023-01-05T22:14:38.812Z,1.50
2023-01-05T22:17:07.173Z,1.50
2023-01-05T22:19:34.666Z,1.27
2023-01-05T22:22:01.442Z,1.67
2023-01-05T22:24:28.275Z,1.17
2023-01-05T22:26:55.130Z,1.10
2023-01-05T22:29:21.938Z,0.93
2023-01-05T22:31:50.684Z,1.00
2023-01-05T22:34:17.732Z,1.30
2023-01-05T22:36:45.025Z,1.00
2023-01-05T22:39:12.395Z,1.40
2023-01-05T22:41:39.246Z,1.45
2023-01-05T22:44:06.286Z,1.45
2023-01-05T22:46:33.219Z,1.20
2023-01-05T22:49:00.819Z,1.25
2023-01-05T22:51:30.092Z,1.40
2023-01-05T22:53:58.268Z,1.88
2023-01-05T22:56:27.088Z,1.70
2023-01-05T22:58:55.931Z,1.45
2023-01-05T23:01:28.939Z,1.75
2023-01-05T23:03:59.317Z,1.10
2023-01-05T23:06:26.959Z,1.25
2023-01-05T23:08:54.980Z,2.03
2023-01-05T23:11:24.338Z,2.20
2023-01-05T23:13:52.614Z,1.60
2023-01-05T23:16:19.895Z,1.52
2023-01-05T23:18:48.320Z,1.92
2023-01-05T23:21:15.758Z,1.70
2023-01-05T23:23:44.159Z,1.50
2023-01-05T23:26:12.928Z,1.80
2023-01-05T23:28:40.130Z,2.40
2023-01-05T23:31:07.349Z,1.70
2023-01-05T23:33:36.272Z,1.58
2023-01-05T23:36:04.604Z,1.83
2023-01-05T23:38:32.352Z,2.03
2023-01-05T23:41:00.261Z,1.40
2023-01-05T23:43:28.585Z,1.65
2023-01-05T23:46:04.618Z,1.75
2023-01-05T23:48:31.755Z,1.63
2023-01-05T23:50:58.863Z,1.75
2023-01-05T23:53:26.132Z,1.48
2023-01-05T23:55:53.564Z,1.30
2023-01-05T23:58:20.461Z,1.30
